createdAt,value
2019-05-09T00:00:43.976Z,3.70
2019-05-09T00:03:13.818Z,3.07
2019-05-09T00:05:44.071Z,2.67
2019-05-09T00:08:13.898Z,2.50
2019-05-09T00:10:44.931Z,2.67
2019-05-09T00:13:14.013Z,2.47
2019-05-09T00:15:43.825Z,2.10
2019-05-09T00:18:14.310Z,2.60
2019-05-09T00:20:53.878Z,2.47
2019-05-09T00:23:23.960Z,2.60
2019-05-09T00:25:53.793Z,3.63
2019-05-09T00:28:24.344Z,3.03
2019-05-09T00:31:07.239Z,3.50
2019-05-09T00:33:36.297Z,2.90
2019-05-09T00:36:05.399Z,2.90
2019-05-09T00:38:38.658Z,2.73
2019-05-09T00:41:07.696Z,2.53
2019-05-09T00:43:36.723Z,2.97
2019-05-09T00:46:24.932Z,3.20
2019-05-09T00:48:58.112Z,3.00
2019-05-09T00:51:27.268Z,3.23
2019-05-09T00:53:56.213Z,3.20
2019-05-09T00:56:25.175Z,3.33
2019-05-09T00:58:54.219Z,3.23
2019-05-09T01:01:23.942Z,2.97
2019-05-09T01:03:53.807Z,3.67
2019-05-09T01:06:24.042Z,3.67
2019-05-09T01:08:55.231Z,4.27
2019-05-09T01:11:24.604Z,4.10
2019-05-09T01:13:54.475Z,4.23
2019-05-09T01:16:24.311Z,5.23
2019-05-09T01:18:54.322Z,4.60
2019-05-09T01:21:24.209Z,5.03
2019-05-09T01:23:54.162Z,5.13
2019-05-09T01:26:24.221Z,4.73
2019-05-09T01:28:54.102Z,5.10
2019-05-09T01:31:24.081Z,5.40
2019-05-09T01:34:04.683Z,5.30
2019-05-09T01:36:51.344Z,4.97
2019-05-09T01:39:20.448Z,7.50
2019-05-09T01:41:49.607Z,5.80
2019-05-09T01:44:18.715Z,6.37
2019-05-09T01:46:47.772Z,7.57
2019-05-09T01:49:16.728Z,7.10
2019-05-09T01:51:45.731Z,7.53
2019-05-09T01:54:16.544Z,7.37
2019-05-09T01:56:45.626Z,7.53
2019-05-09T01:59:14.799Z,9.67
2019-05-09T02:01:43.875Z,8.17
2019-05-09T02:04:13.667Z,8.40
2019-05-09T02:06:44.070Z,9.13
2019-05-09T02:09:14.041Z,9.17
2019-05-09T02:11:45.624Z,8.10
2019-05-09T02:14:17.278Z,9.20
2019-05-09T02:17:13.829Z,8.90
2019-05-09T02:19:44.016Z,9.73
2019-05-09T02:22:30.911Z,9.27
2019-05-09T02:24:59.963Z,11.00
2019-05-09T02:27:29.080Z,10.80
2019-05-09T02:29:58.146Z,11.40
2019-05-09T02:32:27.125Z,12.63
2019-05-09T02:34:56.194Z,12.50
2019-05-09T02:37:25.196Z,12.20
2019-05-09T02:39:54.309Z,13.23
2019-05-09T02:42:23.411Z,11.00
2019-05-09T02:44:52.542Z,11.67
2019-05-09T02:47:23.435Z,11.63
2019-05-09T02:49:52.575Z,10.70
2019-05-09T02:52:21.639Z,11.77
2019-05-09T02:54:50.683Z,11.40
2019-05-09T02:57:19.809Z,10.00
2019-05-09T02:59:59.389Z,9.93
2019-05-09T03:02:38.192Z,9.63
2019-05-09T03:05:08.855Z,10.20
2019-05-09T03:07:52.329Z,10.00
2019-05-09T03:10:22.508Z,9.53
2019-05-09T03:12:51.734Z,9.73
2019-05-09T03:15:20.987Z,9.67
2019-05-09T03:17:50.228Z,9.93
2019-05-09T03:20:34.784Z,10.07
2019-05-09T03:23:03.880Z,12.23
2019-05-09T03:25:33.384Z,10.97
2019-05-09T03:28:12.019Z,11.80
2019-05-09T03:30:42.443Z,11.13
2019-05-09T03:33:11.431Z,12.60
2019-05-09T03:35:40.491Z,13.30
2019-05-09T03:38:09.483Z,13.63
2019-05-09T03:40:38.573Z,13.87
2019-05-09T03:43:08.142Z,13.80
2019-05-09T03:45:44.019Z,15.10
2019-05-09T03:48:19.288Z,15.00
2019-05-09T03:50:48.746Z,15.10
2019-05-09T03:53:18.419Z,16.33
2019-05-09T03:55:48.326Z,16.40
2019-05-09T03:58:19.164Z,17.70
2019-05-09T04:00:48.247Z,17.80
2019-05-09T04:03:19.874Z,18.27
2019-05-09T04:05:58.444Z,18.80
2019-05-09T04:08:19.520Z,19.07
2019-05-09T04:10:50.152Z,19.43
2019-05-09T04:13:21.548Z,20.10
2019-05-09T04:15:50.553Z,20.13
2019-05-09T04:18:19.603Z,20.30
2019-05-09T04:20:48.507Z,20.20
2019-05-09T04:23:18.608Z,19.80
2019-05-09T04:26:07.537Z,19.40
2019-05-09T04:28:39.725Z,20.20
2019-05-09T04:31:08.344Z,20.57
2019-05-09T04:33:38.297Z,20.00
2019-05-09T04:36:08.313Z,19.83
2019-05-09T04:38:39.750Z,19.37
2019-05-09T04:41:08.275Z,19.27
2019-05-09T04:43:39.750Z,19.07
2019-05-09T04:46:13.113Z,18.10
2019-05-09T04:48:39.807Z,19.10
2019-05-09T04:51:08.980Z,19.00
2019-05-09T04:53:39.911Z,17.37
2019-05-09T04:56:17.544Z,18.57
2019-05-09T04:58:48.154Z,16.33
2019-05-09T05:01:39.593Z,15.70
2019-05-09T05:04:09.191Z,17.67
2019-05-09T05:06:40.280Z,14.83
2019-05-09T05:09:09.376Z,16.50
2019-05-09T05:11:38.511Z,15.17
2019-05-09T05:14:09.466Z,15.73
2019-05-09T05:16:39.307Z,16.33
2019-05-09T05:19:08.496Z,14.87
2019-05-09T05:21:37.880Z,13.70
2019-05-09T05:24:27.772Z,15.17
2019-05-09T05:26:57.871Z,11.37
2019-05-09T05:29:28.199Z,13.50
2019-05-09T05:31:58.706Z,13.33
2019-05-09T05:34:32.339Z,12.87
2019-05-09T05:37:01.388Z,12.80
2019-05-09T05:39:30.503Z,11.50
2019-05-09T05:41:59.967Z,11.73
2019-05-09T05:44:28.954Z,10.47
2019-05-09T05:47:26.353Z,11.93
2019-05-09T05:49:53.735Z,9.57
2019-05-09T05:52:22.873Z,10.20
2019-05-09T05:54:51.900Z,7.97
2019-05-09T05:57:20.913Z,8.90
2019-05-09T05:59:50.053Z,9.17
2019-05-09T06:02:19.156Z,8.80
2019-05-09T06:04:48.733Z,8.70
2019-05-09T06:07:18.574Z,7.60
2019-05-09T06:09:48.401Z,8.23
2019-05-09T06:12:18.550Z,7.50
2019-05-09T06:14:48.141Z,6.80
2019-05-09T06:17:18.067Z,6.33
2019-05-09T06:19:48.228Z,7.30
2019-05-09T06:22:18.448Z,6.53
2019-05-09T06:24:47.931Z,5.93
2019-05-09T06:27:18.248Z,7.13
2019-05-09T06:29:47.848Z,6.37
2019-05-09T06:32:18.863Z,6.53
2019-05-09T06:34:57.875Z,6.00
2019-05-09T06:37:30.376Z,5.67
2019-05-09T06:39:59.601Z,6.10
2019-05-09T06:42:29.231Z,5.73
2019-05-09T06:45:17.955Z,6.17
2019-05-09T06:47:48.661Z,5.30
2019-05-09T06:50:19.224Z,6.07
2019-05-09T06:52:48.308Z,5.90
2019-05-09T06:55:17.464Z,5.67
2019-05-09T06:57:48.672Z,4.97
2019-05-09T07:00:28.340Z,4.90
2019-05-09T07:03:07.504Z,5.97
2019-05-09T07:05:57.471Z,5.40
2019-05-09T07:08:32.473Z,5.73
2019-05-09T07:11:04.011Z,5.27
2019-05-09T07:13:38.065Z,5.40
2019-05-09T07:16:09.058Z,4.07
2019-05-09T07:18:38.395Z,5.53
2019-05-09T07:21:08.298Z,4.90
2019-05-09T07:23:37.671Z,4.50
2019-05-09T07:26:11.456Z,5.40
2019-05-09T07:28:41.044Z,4.13
2019-05-09T07:31:29.221Z,5.73
2019-05-09T07:34:18.461Z,4.43
2019-05-09T07:36:47.809Z,5.43
2019-05-09T07:39:17.660Z,5.00
2019-05-09T07:41:47.844Z,4.87
2019-05-09T07:44:18.240Z,5.13
2019-05-09T07:47:12.684Z,5.03
2019-05-09T07:49:41.893Z,5.40
2019-05-09T07:52:11.096Z,4.73
2019-05-09T07:54:40.671Z,5.37
2019-05-09T07:57:09.828Z,4.80
2019-05-09T07:59:47.850Z,5.10
2019-05-09T08:02:17.952Z,3.83
2019-05-09T08:04:48.976Z,4.47
2019-05-09T08:07:18.779Z,5.20
2019-05-09T08:09:48.343Z,5.07
2019-05-09T08:12:18.101Z,4.37
2019-05-09T08:15:06.774Z,4.70
2019-05-09T08:17:18.348Z,3.80
2019-05-09T08:19:48.442Z,4.47
2019-05-09T08:22:24.570Z,4.77
2019-05-09T08:24:48.583Z,4.30
2019-05-09T08:27:17.700Z,4.37
2019-05-09T08:29:52.994Z,4.10
2019-05-09T08:32:22.255Z,3.93
2019-05-09T08:34:51.614Z,4.70
2019-05-09T08:37:20.790Z,4.37
2019-05-09T08:39:49.948Z,4.23
2019-05-09T08:42:20.075Z,4.67
2019-05-09T08:44:49.541Z,4.20
2019-05-09T08:47:18.706Z,5.13
2019-05-09T08:50:07.945Z,3.73
2019-05-09T08:52:37.702Z,4.13
2019-05-09T08:55:08.471Z,4.03
2019-05-09T08:57:37.740Z,4.20
2019-05-09T09:00:08.194Z,4.43
2019-05-09T09:02:37.802Z,4.27
2019-05-09T09:05:08.653Z,4.13
2019-05-09T09:07:38.091Z,6.20
2019-05-09T09:10:08.560Z,4.97
2019-05-09T09:12:38.594Z,4.17
2019-05-09T09:15:08.139Z,5.80
2019-05-09T09:17:38.486Z,5.93
2019-05-09T09:20:08.158Z,3.87
2019-05-09T09:22:37.717Z,3.93
2019-05-09T09:25:07.737Z,4.60
2019-05-09T09:27:38.112Z,5.00
2019-05-09T09:30:19.926Z,4.70
2019-05-09T09:32:39.003Z,4.20
2019-05-09T09:35:08.279Z,4.40
2019-05-09T09:37:45.924Z,4.30
2019-05-09T09:40:08.905Z,4.57
2019-05-09T09:42:39.758Z,3.40
2019-05-09T09:45:13.585Z,4.00
2019-05-09T09:47:42.859Z,3.47
2019-05-09T09:50:12.888Z,3.93
2019-05-09T09:52:42.091Z,4.13
2019-05-09T09:55:11.684Z,3.63
2019-05-09T09:58:19.009Z,4.22
2019-05-09T10:00:44.299Z,3.83
2019-05-09T10:03:13.457Z,4.10
2019-05-09T10:05:43.824Z,5.13
2019-05-09T10:08:14.097Z,4.70
2019-05-09T10:10:43.702Z,4.13
2019-05-09T10:13:12.815Z,4.10
2019-05-09T10:16:04.146Z,3.77
2019-05-09T10:18:47.469Z,4.67
2019-05-09T10:21:22.841Z,4.60
2019-05-09T10:23:52.008Z,4.90
2019-05-09T10:26:21.106Z,4.83
2019-05-09T10:28:50.418Z,5.07
2019-05-09T10:31:19.683Z,4.83
2019-05-09T10:33:48.809Z,5.67
2019-05-09T10:36:35.145Z,5.03
2019-05-09T10:39:08.156Z,5.73
2019-05-09T10:41:39.513Z,5.80
2019-05-09T10:44:31.260Z,5.53
2019-05-09T10:47:08.398Z,5.43
2019-05-09T10:49:45.539Z,6.47
2019-05-09T10:52:23.670Z,6.87
2019-05-09T10:54:52.556Z,6.10
2019-05-09T10:57:21.895Z,6.40
2019-05-09T10:59:51.060Z,4.50
2019-05-09T11:02:20.559Z,4.53
2019-05-09T11:04:49.702Z,5.57
2019-05-09T11:07:18.905Z,6.13
2019-05-09T11:09:48.179Z,4.97
2019-05-09T11:12:18.037Z,3.87
2019-05-09T11:14:48.431Z,4.27
2019-05-09T11:17:21.042Z,6.23
2019-05-09T11:19:49.151Z,4.93
2019-05-09T11:22:18.583Z,4.93
2019-05-09T11:24:50.941Z,4.40
2019-05-09T11:27:18.919Z,6.67
2019-05-09T11:29:49.819Z,5.27
2019-05-09T11:32:18.954Z,5.00
2019-05-09T11:34:48.631Z,5.60
2019-05-09T11:37:25.350Z,5.03
2019-05-09T11:39:54.561Z,6.23
2019-05-09T11:42:23.740Z,5.20
2019-05-09T11:44:52.961Z,5.50
2019-05-09T11:47:31.785Z,5.30
2019-05-09T11:49:53.106Z,6.50
2019-05-09T11:52:22.313Z,9.10
2019-05-09T11:54:51.514Z,6.17
2019-05-09T11:57:20.659Z,6.90
2019-05-09T11:59:49.769Z,6.47
2019-05-09T12:02:19.168Z,5.80
2019-05-09T12:04:48.778Z,6.00
2019-05-09T12:07:18.093Z,6.33
2019-05-09T12:10:02.192Z,6.60
2019-05-09T12:12:31.465Z,6.50
2019-05-09T12:15:00.672Z,6.80
2019-05-09T12:17:49.223Z,6.83
2019-05-09T12:20:09.763Z,7.20
2019-05-09T12:22:31.620Z,6.20
2019-05-09T12:25:00.801Z,7.37
2019-05-09T12:27:30.022Z,5.67
2019-05-09T12:29:59.158Z,5.87
2019-05-09T12:32:28.921Z,6.47
2019-05-09T12:34:58.122Z,5.43
2019-05-09T12:37:28.146Z,5.73
2019-05-09T12:39:58.547Z,7.03
2019-05-09T12:42:29.290Z,7.00
2019-05-09T12:44:59.091Z,7.30
2019-05-09T12:47:29.086Z,6.60
2019-05-09T12:50:02.429Z,6.93
2019-05-09T12:52:29.321Z,5.67
2019-05-09T12:54:58.472Z,6.33
2019-05-09T12:57:28.925Z,5.90
2019-05-09T12:59:58.809Z,6.83
2019-05-09T13:02:28.112Z,5.60
2019-05-09T13:04:57.403Z,6.13
2019-05-09T13:07:29.461Z,5.50
2019-05-09T13:09:58.245Z,5.80
2019-05-09T13:12:29.172Z,7.27
2019-05-09T13:14:58.381Z,5.97
2019-05-09T13:17:38.941Z,6.37
2019-05-09T13:20:28.605Z,6.10
2019-05-09T13:22:58.858Z,6.87
2019-05-09T13:25:50.344Z,7.73
2019-05-09T13:28:19.695Z,5.30
2019-05-09T13:31:00.288Z,6.33
2019-05-09T13:33:43.715Z,6.25
2019-05-09T13:36:12.922Z,7.07
2019-05-09T13:39:17.851Z,5.60
2019-05-09T13:41:53.626Z,5.40
2019-05-09T13:44:22.916Z,5.10
2019-05-09T13:47:06.075Z,5.67
2019-05-09T13:49:36.977Z,5.27
2019-05-09T13:52:09.913Z,4.90
2019-05-09T13:55:02.685Z,5.00
2019-05-09T13:58:19.617Z,4.60
2019-05-09T14:06:42.091Z,4.20
2019-05-09T14:09:33.378Z,4.43
2019-05-09T14:13:04.565Z,6.07
2019-05-09T14:15:51.683Z,4.40
2019-05-09T14:18:40.131Z,4.73
2019-05-09T14:27:18.500Z,5.43
2019-05-09T14:30:13.477Z,5.97
2019-05-09T14:33:10.806Z,5.43
2019-05-09T14:38:44.529Z,6.07
2019-05-09T14:42:00.572Z,5.20
2019-05-09T14:44:47.386Z,4.10
2019-05-09T14:47:17.665Z,4.90
2019-05-09T14:49:49.854Z,4.50
2019-05-09T14:52:18.014Z,4.53
2019-05-09T14:54:48.295Z,5.03
2019-05-09T14:57:17.698Z,4.77
2019-05-09T14:59:47.075Z,4.30
2019-05-09T15:02:17.949Z,4.97
2019-05-09T15:04:48.531Z,3.87
2019-05-09T15:07:19.382Z,4.23
2019-05-09T15:09:48.903Z,4.53
2019-05-09T15:12:18.684Z,4.37
2019-05-09T15:14:48.086Z,4.10
2019-05-09T15:17:18.465Z,5.03
2019-05-09T15:19:57.448Z,4.27
2019-05-09T15:22:18.911Z,5.10
2019-05-09T15:24:48.119Z,3.77
2019-05-09T15:27:17.927Z,8.63
2019-05-09T15:29:48.680Z,4.67
2019-05-09T15:32:18.494Z,4.03
2019-05-09T15:34:47.671Z,3.77
2019-05-09T15:37:18.692Z,4.13
2019-05-09T15:39:48.523Z,4.23
2019-05-09T15:42:18.389Z,4.33
2019-05-09T15:44:47.732Z,3.70
2019-05-09T15:47:27.729Z,4.33
2019-05-09T15:49:57.942Z,4.13
2019-05-09T15:52:28.628Z,4.10
2019-05-09T15:54:58.088Z,3.90
2019-05-09T15:57:27.627Z,3.77
2019-05-09T15:59:58.788Z,3.87
2019-05-09T16:02:28.233Z,3.03
2019-05-09T16:04:58.385Z,3.73
2019-05-09T16:07:28.476Z,3.30
2019-05-09T16:09:58.132Z,3.30
2019-05-09T16:12:27.891Z,3.00
2019-05-09T16:14:56.836Z,3.43
2019-05-09T16:17:28.498Z,3.03
2019-05-09T16:19:57.737Z,3.60
2019-05-09T16:22:28.436Z,3.30
2019-05-09T16:24:57.621Z,2.83
2019-05-09T16:27:26.873Z,3.37
2019-05-09T16:29:57.958Z,3.10
2019-05-09T16:32:26.976Z,4.10
2019-05-09T16:34:55.891Z,3.40
2019-05-09T16:37:25.086Z,4.20
2019-05-09T16:39:54.142Z,3.87
2019-05-09T16:42:23.417Z,3.93
2019-05-09T16:44:52.762Z,3.90
2019-05-09T16:47:22.702Z,3.63
2019-05-09T16:49:51.931Z,4.20
2019-05-09T16:52:21.271Z,4.50
2019-05-09T16:54:52.555Z,4.33
2019-05-09T16:57:21.535Z,4.00
2019-05-09T16:59:50.831Z,4.20
2019-05-09T17:02:24.662Z,4.37
2019-05-09T17:04:51.103Z,4.07
2019-05-09T17:07:20.281Z,5.07
2019-05-09T17:09:49.583Z,4.83
2019-05-09T17:12:18.843Z,5.00
2019-05-09T17:14:47.962Z,5.20
2019-05-09T17:17:17.842Z,4.27
2019-05-09T17:19:48.088Z,3.80
2019-05-09T17:22:38.202Z,4.60
2019-05-09T17:25:08.024Z,5.20
2019-05-09T17:27:38.681Z,4.83
2019-05-09T17:30:08.681Z,4.97
2019-05-09T17:32:38.064Z,4.63
2019-05-09T17:35:07.979Z,4.93
2019-05-09T17:37:38.030Z,5.00
2019-05-09T17:40:07.984Z,5.40
2019-05-09T17:42:38.194Z,5.43
2019-05-09T17:45:08.417Z,4.90
2019-05-09T17:47:37.841Z,5.50
2019-05-09T17:50:07.819Z,4.70
2019-05-09T17:52:37.066Z,5.17
2019-05-09T17:55:07.422Z,4.37
2019-05-09T17:57:38.748Z,5.50
2019-05-09T18:00:08.352Z,5.03
2019-05-09T18:02:38.576Z,5.47
2019-05-09T18:05:08.865Z,4.37
2019-05-09T18:07:37.979Z,5.00
2019-05-09T18:10:07.826Z,5.30
2019-05-09T18:12:38.398Z,6.10
2019-05-09T18:15:07.958Z,5.27
2019-05-09T18:17:38.276Z,6.37
2019-05-09T18:20:08.136Z,5.70
2019-05-09T18:22:38.293Z,5.50
2019-05-09T18:25:08.399Z,5.77
2019-05-09T18:27:37.931Z,5.20
2019-05-09T18:30:07.640Z,5.97
2019-05-09T18:32:52.980Z,6.27
2019-05-09T18:35:23.279Z,6.40
2019-05-09T18:37:52.755Z,5.43
2019-05-09T18:40:23.058Z,5.60
2019-05-09T18:42:52.376Z,6.27
2019-05-09T18:45:42.750Z,5.83
2019-05-09T18:48:12.109Z,6.57
2019-05-09T18:50:41.107Z,6.87
2019-05-09T18:53:10.307Z,5.80
2019-05-09T18:55:39.736Z,6.27
2019-05-09T18:58:08.920Z,7.70
2019-05-09T19:00:38.256Z,7.00
2019-05-09T19:03:13.805Z,5.67
2019-05-09T19:05:43.632Z,6.47
2019-05-09T19:08:13.307Z,7.37
2019-05-09T19:10:42.380Z,6.77
2019-05-09T19:13:11.586Z,6.33
2019-05-09T19:16:02.532Z,7.07
2019-05-09T19:18:49.481Z,6.43
2019-05-09T19:21:22.838Z,7.50
2019-05-09T19:23:51.935Z,6.23
2019-05-09T19:26:36.641Z,6.90
2019-05-09T19:29:09.652Z,7.73
2019-05-09T19:31:57.903Z,7.13
2019-05-09T19:34:27.123Z,7.53
2019-05-09T19:36:56.155Z,8.10
2019-05-09T19:39:25.488Z,7.60
2019-05-09T19:41:54.735Z,8.53
2019-05-09T19:47:13.649Z,8.47
2019-05-09T19:49:42.691Z,8.27
2019-05-09T19:52:11.989Z,8.57
2019-05-09T19:54:40.986Z,7.87
2019-05-09T19:57:10.200Z,8.10
2019-05-09T19:59:39.359Z,8.80
2019-05-09T20:02:08.521Z,8.07
2019-05-09T20:04:37.770Z,8.07
2019-05-09T20:07:09.747Z,10.03
2019-05-09T20:09:47.876Z,9.17
2019-05-09T20:12:27.680Z,8.03
2019-05-09T20:14:56.739Z,8.37
2019-05-09T20:17:25.992Z,8.73
2019-05-09T20:19:55.040Z,8.83
2019-05-09T20:22:24.253Z,8.63
2019-05-09T20:24:53.523Z,8.40
2019-05-09T20:27:22.857Z,8.97
2019-05-09T20:29:51.947Z,7.80
2019-05-09T20:32:21.471Z,9.90
2019-05-09T20:34:50.686Z,8.07
2019-05-09T20:37:19.747Z,8.43
2019-05-09T20:39:49.222Z,9.20
2019-05-09T20:42:18.735Z,9.77
2019-05-09T20:44:47.883Z,10.13
2019-05-09T20:47:17.356Z,9.23
2019-05-09T20:49:47.752Z,9.37
2019-05-09T20:52:17.156Z,9.10
2019-05-09T20:54:46.529Z,8.07
2019-05-09T20:57:16.036Z,7.80
2019-05-09T20:59:45.264Z,7.50
2019-05-09T21:02:14.668Z,8.77
2019-05-09T21:04:44.280Z,8.27
2019-05-09T21:07:13.568Z,9.50
2019-05-09T21:09:42.756Z,10.63
2019-05-09T21:12:11.902Z,10.27
2019-05-09T21:14:41.165Z,10.80
2019-05-09T21:17:10.409Z,10.30
2019-05-09T21:19:39.762Z,8.87
2019-05-09T21:22:14.697Z,8.43
2019-05-09T21:24:43.935Z,8.27
2019-05-09T21:27:13.172Z,9.40
2019-05-09T21:29:42.465Z,8.90
2019-05-09T21:32:11.688Z,8.23
2019-05-09T21:34:40.885Z,7.80
2019-05-09T21:37:09.955Z,8.07
2019-05-09T21:39:38.943Z,7.23
2019-05-09T21:42:08.012Z,8.77
2019-05-09T21:44:37.033Z,8.00
2019-05-09T21:47:06.139Z,8.53
2019-05-09T21:49:35.216Z,7.33
2019-05-09T21:52:04.291Z,8.10
2019-05-09T21:54:33.384Z,7.83
2019-05-09T21:57:02.475Z,8.60
2019-05-09T21:59:31.552Z,10.30
2019-05-09T22:02:00.718Z,10.70
2019-05-09T22:04:29.796Z,12.30
2019-05-09T22:06:58.984Z,12.47
2019-05-09T22:09:28.188Z,12.53
2019-05-09T22:11:57.399Z,12.63
2019-05-09T22:14:26.551Z,12.20
2019-05-09T22:16:57.203Z,11.37
2019-05-09T22:19:26.281Z,12.43
2019-05-09T22:21:55.232Z,12.90
2019-05-09T22:24:24.267Z,10.93
2019-05-09T22:26:53.287Z,10.13
2019-05-09T22:29:22.431Z,10.03
2019-05-09T22:31:51.459Z,9.50
2019-05-09T22:34:20.549Z,9.30
2019-05-09T22:36:49.615Z,9.60
2019-05-09T22:39:18.618Z,9.57
2019-05-09T22:41:47.659Z,10.47
2019-05-09T22:44:16.557Z,9.13
2019-05-09T22:46:45.706Z,9.63
2019-05-09T22:49:14.780Z,9.20
2019-05-09T22:51:43.881Z,9.40
2019-05-09T22:54:13.327Z,7.83
2019-05-09T22:56:42.705Z,7.47
2019-05-09T22:59:11.770Z,6.70
2019-05-09T23:01:40.877Z,7.17
2019-05-09T23:04:09.948Z,6.83
2019-05-09T23:06:39.068Z,6.47
2019-05-09T23:09:08.107Z,7.47
2019-05-09T23:11:37.137Z,6.97
2019-05-09T23:14:06.432Z,6.40
2019-05-09T23:16:38.136Z,5.70
2019-05-09T23:19:07.184Z,5.97
2019-05-09T23:21:36.242Z,6.23
2019-05-09T23:24:07.527Z,6.63
2019-05-09T23:26:36.564Z,6.97
2019-05-09T23:29:05.860Z,6.80
2019-05-09T23:31:53.995Z,6.23
2019-05-09T23:34:23.114Z,7.17
2019-05-09T23:36:52.202Z,6.93
2019-05-09T23:39:25.723Z,6.73
2019-05-09T23:41:54.808Z,5.77
2019-05-09T23:44:23.923Z,5.87
2019-05-09T23:46:52.951Z,5.53
2019-05-09T23:49:22.066Z,5.50
2019-05-09T23:51:51.139Z,5.30
2019-05-09T23:54:47.651Z,5.47
2019-05-09T23:57:28.465Z,4.97
